sensor_id;sensor_type;location;lat;lon;timestamp;P1;durP1;ratioP1;P2;durP2;ratioP2
14342;SDS011;7255;53.596;9.960;2022-09-21T00:00:23;8.80;;;5.50;;
14342;SDS011;7255;53.596;9.960;2022-09-21T00:02:50;10.67;;;5.20;;
14342;SDS011;7255;53.596;9.960;2022-09-21T00:05:17;11.80;;;4.63;;
14342;SDS011;7255;53.596;9.960;2022-09-21T00:07:43;10.47;;;5.10;;
14342;SDS011;7255;53.596;9.960;2022-09-21T00:10:11;11.67;;;4.73;;
14342;SDS011;7255;53.596;9.960;2022-09-21T00:12:37;11.17;;;5.40;;
14342;SDS011;7255;53.596;9.960;2022-09-21T00:15:04;8.47;;;4.80;;
14342;SDS011;7255;53.596;9.960;2022-09-21T00:17:31;9.10;;;5.17;;
14342;SDS011;7255;53.596;9.960;2022-09-21T00:19:58;10.37;;;4.63;;
14342;SDS011;7255;53.596;9.960;2022-09-21T00:22:25;9.90;;;5.10;;
14342;SDS011;7255;53.596;9.960;2022-09-21T00:24:51;8.70;;;5.07;;
14342;SDS011;7255;53.596;9.960;2022-09-21T00:27:19;8.87;;;4.83;;
14342;SDS011;7255;53.596;9.960;2022-09-21T00:29:45;9.87;;;5.10;;
14342;SDS011;7255;53.596;9.960;2022-09-21T00:32:12;10.67;;;5.30;;
14342;SDS011;7255;53.596;9.960;2022-09-21T00:34:39;8.13;;;5.03;;
14342;SDS011;7255;53.596;9.960;2022-09-21T00:37:06;12.43;;;5.30;;
14342;SDS011;7255;53.596;9.960;2022-09-21T00:39:33;10.57;;;5.30;;
14342;SDS011;7255;53.596;9.960;2022-09-21T00:41:59;10.53;;;5.60;;
14342;SDS011;7255;53.596;9.960;2022-09-21T00:44:31;10.67;;;6.43;;
14342;SDS011;7255;53.596;9.960;2022-09-21T00:47:00;10.97;;;5.23;;
14342;SDS011;7255;53.596;9.960;2022-09-21T00:49:29;8.00;;;4.57;;
14342;SDS011;7255;53.596;9.960;2022-09-21T00:51:58;11.60;;;5.60;;
14342;SDS011;7255;53.596;9.960;2022-09-21T00:54:28;17.30;;;5.40;;
14342;SDS011;7255;53.596;9.960;2022-09-21T00:56:59;6.77;;;5.30;;
14342;SDS011;7255;53.596;9.960;2022-09-21T00:59:27;10.03;;;4.93;;
14342;SDS011;7255;53.596;9.960;2022-09-21T01:01:57;11.27;;;5.30;;
14342;SDS011;7255;53.596;9.960;2022-09-21T01:04:24;8.83;;;4.60;;
14342;SDS011;7255;53.596;9.960;2022-09-21T01:06:52;9.03;;;5.00;;
14342;SDS011;7255;53.596;9.960;2022-09-21T01:09:19;6.63;;;5.33;;
14342;SDS011;7255;53.596;9.960;2022-09-21T01:11:49;12.40;;;5.30;;
14342;SDS011;7255;53.596;9.960;2022-09-21T01:14:32;12.70;;;5.47;;
14342;SDS011;7255;53.596;9.960;2022-09-21T01:17:13;10.67;;;6.07;;
14342;SDS011;7255;53.596;9.960;2022-09-21T01:22:49;14.77;;;6.40;;
14342;SDS011;7255;53.596;9.960;2022-09-21T01:25:34;9.27;;;5.30;;
14342;SDS011;7255;53.596;9.960;2022-09-21T01:28:15;13.23;;;6.60;;
14342;SDS011;7255;53.596;9.960;2022-09-21T01:30:51;10.47;;;5.37;;
14342;SDS011;7255;53.596;9.960;2022-09-21T01:33:20;6.33;;;5.30;;
14342;SDS011;7255;53.596;9.960;2022-09-21T01:35:51;11.60;;;5.27;;
14342;SDS011;7255;53.596;9.960;2022-09-21T01:38:23;8.03;;;5.50;;
14342;SDS011;7255;53.596;9.960;2022-09-21T01:40:54;9.97;;;5.57;;
14342;SDS011;7255;53.596;9.960;2022-09-21T01:43:25;12.17;;;6.10;;
14342;SDS011;7255;53.596;9.960;2022-09-21T01:45:57;8.67;;;6.10;;
14342;SDS011;7255;53.596;9.960;2022-09-21T01:48:26;10.00;;;6.00;;
14342;SDS011;7255;53.596;9.960;2022-09-21T01:50:59;9.73;;;5.50;;
14342;SDS011;7255;53.596;9.960;2022-09-21T01:53:30;9.67;;;6.40;;
14342;SDS011;7255;53.596;9.960;2022-09-21T01:55:58;7.67;;;5.53;;
14342;SDS011;7255;53.596;9.960;2022-09-21T01:58:30;9.23;;;5.73;;
14342;SDS011;7255;53.596;9.960;2022-09-21T02:01:02;8.50;;;5.60;;
14342;SDS011;7255;53.596;9.960;2022-09-21T02:03:32;9.77;;;5.93;;
14342;SDS011;7255;53.596;9.960;2022-09-21T02:06:02;14.33;;;5.63;;
14342;SDS011;7255;53.596;9.960;2022-09-21T02:08:31;8.80;;;5.23;;
14342;SDS011;7255;53.596;9.960;2022-09-21T02:10:58;8.30;;;5.80;;
14342;SDS011;7255;53.596;9.960;2022-09-21T02:13:27;9.77;;;5.90;;
14342;SDS011;7255;53.596;9.960;2022-09-21T02:18:51;11.17;;;5.47;;
14342;SDS011;7255;53.596;9.960;2022-09-21T02:21:24;7.57;;;5.23;;
14342;SDS011;7255;53.596;9.960;2022-09-21T02:24:00;6.80;;;5.53;;
14342;SDS011;7255;53.596;9.960;2022-09-21T02:26:33;11.90;;;6.07;;
14342;SDS011;7255;53.596;9.960;2022-09-21T02:29:06;10.53;;;5.80;;
14342;SDS011;7255;53.596;9.960;2022-09-21T02:31:43;7.63;;;5.57;;
14342;SDS011;7255;53.596;9.960;2022-09-21T02:34:16;6.73;;;5.47;;
14342;SDS011;7255;53.596;9.960;2022-09-21T02:36:47;10.87;;;5.90;;
14342;SDS011;7255;53.596;9.960;2022-09-21T02:39:23;5.97;;;4.90;;
14342;SDS011;7255;53.596;9.960;2022-09-21T02:41:59;11.53;;;5.50;;
14342;SDS011;7255;53.596;9.960;2022-09-21T02:44:30;9.30;;;6.23;;
14342;SDS011;7255;53.596;9.960;2022-09-21T02:47:05;8.70;;;5.57;;
14342;SDS011;7255;53.596;9.960;2022-09-21T02:49:36;7.73;;;5.77;;
14342;SDS011;7255;53.596;9.960;2022-09-21T02:52:08;11.00;;;5.63;;
14342;SDS011;7255;53.596;9.960;2022-09-21T02:54:38;11.20;;;5.60;;
14342;SDS011;7255;53.596;9.960;2022-09-21T02:57:06;10.60;;;6.60;;
14342;SDS011;7255;53.596;9.960;2022-09-21T02:59:34;9.53;;;6.17;;
14342;SDS011;7255;53.596;9.960;2022-09-21T03:02:00;8.97;;;5.63;;
14342;SDS011;7255;53.596;9.960;2022-09-21T03:04:28;11.40;;;6.10;;
14342;SDS011;7255;53.596;9.960;2022-09-21T03:06:55;11.17;;;5.93;;
14342;SDS011;7255;53.596;9.960;2022-09-21T03:09:21;10.67;;;5.90;;
14342;SDS011;7255;53.596;9.960;2022-09-21T03:11:48;13.30;;;6.80;;
14342;SDS011;7255;53.596;9.960;2022-09-21T03:14:14;11.73;;;6.30;;
14342;SDS011;7255;53.596;9.960;2022-09-21T03:16:42;10.53;;;5.67;;
14342;SDS011;7255;53.596;9.960;2022-09-21T03:19:08;7.37;;;5.83;;
14342;SDS011;7255;53.596;9.960;2022-09-21T03:21:37;9.53;;;5.60;;
14342;SDS011;7255;53.596;9.960;2022-09-21T03:24:04;8.40;;;5.53;;
14342;SDS011;7255;53.596;9.960;2022-09-21T03:26:31;7.13;;;5.40;;
14342;SDS011;7255;53.596;9.960;2022-09-21T03:28:57;6.23;;;4.83;;
14342;SDS011;7255;53.596;9.960;2022-09-21T03:31:24;8.37;;;5.73;;
14342;SDS011;7255;53.596;9.960;2022-09-21T03:33:50;12.03;;;6.30;;
14342;SDS011;7255;53.596;9.960;2022-09-21T03:36:16;6.77;;;5.10;;
14342;SDS011;7255;53.596;9.960;2022-09-21T03:38:44;11.63;;;6.83;;
14342;SDS011;7255;53.596;9.960;2022-09-21T03:41:11;13.70;;;6.07;;
14342;SDS011;7255;53.596;9.960;2022-09-21T03:43:38;9.10;;;5.97;;
14342;SDS011;7255;53.596;9.960;2022-09-21T03:46:04;11.40;;;6.03;;
14342;SDS011;7255;53.596;9.960;2022-09-21T03:48:30;11.23;;;5.90;;
14342;SDS011;7255;53.596;9.960;2022-09-21T03:50:57;10.83;;;6.37;;
14342;SDS011;7255;53.596;9.960;2022-09-21T03:53:24;13.13;;;6.83;;
14342;SDS011;7255;53.596;9.960;2022-09-21T03:55:51;10.17;;;6.90;;
14342;SDS011;7255;53.596;9.960;2022-09-21T03:58:17;26.93;;;9.97;;
14342;SDS011;7255;53.596;9.960;2022-09-21T04:00:44;28.33;;;9.50;;
14342;SDS011;7255;53.596;9.960;2022-09-21T04:03:10;14.20;;;7.37;;
14342;SDS011;7255;53.596;9.960;2022-09-21T04:05:37;23.03;;;8.70;;
14342;SDS011;7255;53.596;9.960;2022-09-21T04:08:03;20.17;;;8.93;;
14342;SDS011;7255;53.596;9.960;2022-09-21T04:10:31;33.73;;;9.23;;
14342;SDS011;7255;53.596;9.960;2022-09-21T04:12:59;24.20;;;10.40;;
14342;SDS011;7255;53.596;9.960;2022-09-21T04:15:27;29.30;;;10.43;;
14342;SDS011;7255;53.596;9.960;2022-09-21T04:17:55;22.63;;;11.20;;
14342;SDS011;7255;53.596;9.960;2022-09-21T04:20:23;22.40;;;10.73;;
14342;SDS011;7255;53.596;9.960;2022-09-21T04:22:50;19.43;;;9.90;;
14342;SDS011;7255;53.596;9.960;2022-09-21T04:25:16;20.87;;;10.13;;
14342;SDS011;7255;53.596;9.960;2022-09-21T04:27:43;24.20;;;10.23;;
14342;SDS011;7255;53.596;9.960;2022-09-21T04:30:11;19.87;;;9.90;;
14342;SDS011;7255;53.596;9.960;2022-09-21T04:32:39;18.43;;;9.10;;
14342;SDS011;7255;53.596;9.960;2022-09-21T04:35:06;18.57;;;9.97;;
14342;SDS011;7255;53.596;9.960;2022-09-21T04:37:33;17.30;;;10.00;;
14342;SDS011;7255;53.596;9.960;2022-09-21T04:40:00;12.27;;;9.17;;
14342;SDS011;7255;53.596;9.960;2022-09-21T04:42:27;19.57;;;9.63;;
14342;SDS011;7255;53.596;9.960;2022-09-21T04:44:53;17.23;;;9.77;;
14342;SDS011;7255;53.596;9.960;2022-09-21T04:47:20;16.43;;;9.70;;
14342;SDS011;7255;53.596;9.960;2022-09-21T04:49:47;17.93;;;10.23;;
14342;SDS011;7255;53.596;9.960;2022-09-21T04:52:14;17.10;;;9.07;;
14342;SDS011;7255;53.596;9.960;2022-09-21T04:54:40;16.03;;;8.40;;
14342;SDS011;7255;53.596;9.960;2022-09-21T04:57:06;12.53;;;9.13;;
14342;SDS011;7255;53.596;9.960;2022-09-21T04:59:32;17.50;;;9.10;;
14342;SDS011;7255;53.596;9.960;2022-09-21T05:01:59;15.27;;;8.63;;
14342;SDS011;7255;53.596;9.960;2022-09-21T05:04:26;19.20;;;10.00;;
14342;SDS011;7255;53.596;9.960;2022-09-21T05:06:53;16.53;;;9.70;;
14342;SDS011;7255;53.596;9.960;2022-09-21T05:09:21;15.40;;;9.03;;
14342;SDS011;7255;53.596;9.960;2022-09-21T05:12:05;15.93;;;9.00;;
14342;SDS011;7255;53.596;9.960;2022-09-21T05:14:31;18.53;;;9.07;;
14342;SDS011;7255;53.596;9.960;2022-09-21T05:16:58;14.53;;;9.10;;
14342;SDS011;7255;53.596;9.960;2022-09-21T05:19:24;14.83;;;9.83;;
14342;SDS011;7255;53.596;9.960;2022-09-21T05:21:51;20.27;;;10.33;;
14342;SDS011;7255;53.596;9.960;2022-09-21T05:24:18;21.00;;;10.40;;
14342;SDS011;7255;53.596;9.960;2022-09-21T05:26:44;22.87;;;10.87;;
14342;SDS011;7255;53.596;9.960;2022-09-21T05:29:10;19.93;;;10.67;;
14342;SDS011;7255;53.596;9.960;2022-09-21T05:31:38;22.47;;;12.07;;
14342;SDS011;7255;53.596;9.960;2022-09-21T05:34:15;21.43;;;10.30;;
14342;SDS011;7255;53.596;9.960;2022-09-21T05:36:51;21.80;;;10.27;;
14342;SDS011;7255;53.596;9.960;2022-09-21T05:39:24;17.93;;;9.67;;
14342;SDS011;7255;53.596;9.960;2022-09-21T05:41:51;22.33;;;10.03;;
14342;SDS011;7255;53.596;9.960;2022-09-21T05:44:18;21.33;;;10.00;;
14342;SDS011;7255;53.596;9.960;2022-09-21T05:46:46;27.33;;;11.33;;
14342;SDS011;7255;53.596;9.960;2022-09-21T05:49:18;17.67;;;9.63;;
14342;SDS011;7255;53.596;9.960;2022-09-21T05:51:51;21.43;;;10.20;;
14342;SDS011;7255;53.596;9.960;2022-09-21T05:54:30;17.17;;;9.47;;
14342;SDS011;7255;53.596;9.960;2022-09-21T05:57:07;19.43;;;9.87;;
14342;SDS011;7255;53.596;9.960;2022-09-21T05:59:43;18.20;;;10.57;;
14342;SDS011;7255;53.596;9.960;2022-09-21T06:02:17;21.90;;;10.17;;
14342;SDS011;7255;53.596;9.960;2022-09-21T06:04:52;19.43;;;10.57;;
14342;SDS011;7255;53.596;9.960;2022-09-21T06:07:23;16.37;;;10.83;;
14342;SDS011;7255;53.596;9.960;2022-09-21T06:09:50;21.90;;;11.67;;
14342;SDS011;7255;53.596;9.960;2022-09-21T06:12:16;22.33;;;11.43;;
14342;SDS011;7255;53.596;9.960;2022-09-21T06:14:43;16.80;;;10.10;;
14342;SDS011;7255;53.596;9.960;2022-09-21T06:17:09;19.23;;;10.53;;
14342;SDS011;7255;53.596;9.960;2022-09-21T06:19:35;21.37;;;11.67;;
14342;SDS011;7255;53.596;9.960;2022-09-21T06:22:02;19.57;;;12.17;;
14342;SDS011;7255;53.596;9.960;2022-09-21T06:24:30;17.83;;;11.20;;
14342;SDS011;7255;53.596;9.960;2022-09-21T06:26:56;19.23;;;11.83;;
14342;SDS011;7255;53.596;9.960;2022-09-21T06:29:22;20.37;;;12.37;;
14342;SDS011;7255;53.596;9.960;2022-09-21T06:31:48;23.73;;;12.80;;
14342;SDS011;7255;53.596;9.960;2022-09-21T06:34:15;19.07;;;12.50;;
14342;SDS011;7255;53.596;9.960;2022-09-21T06:36:42;23.83;;;13.83;;
14342;SDS011;7255;53.596;9.960;2022-09-21T06:39:09;25.70;;;13.77;;
14342;SDS011;7255;53.596;9.960;2022-09-21T06:41:37;25.03;;;13.13;;
14342;SDS011;7255;53.596;9.960;2022-09-21T06:44:03;18.50;;;12.43;;
14342;SDS011;7255;53.596;9.960;2022-09-21T06:46:30;23.83;;;13.73;;
14342;SDS011;7255;53.596;9.960;2022-09-21T06:48:56;23.87;;;15.05;;
14342;SDS011;7255;53.596;9.960;2022-09-21T06:51:22;27.37;;;14.70;;
14342;SDS011;7255;53.596;9.960;2022-09-21T06:53:52;30.45;;;16.40;;
14342;SDS011;7255;53.596;9.960;2022-09-21T06:56:19;27.37;;;16.10;;
14342;SDS011;7255;53.596;9.960;2022-09-21T06:58:47;21.95;;;15.82;;
14342;SDS011;7255;53.596;9.960;2022-09-21T07:01:13;25.95;;;15.90;;
14342;SDS011;7255;53.596;9.960;2022-09-21T07:03:40;32.10;;;16.67;;
14342;SDS011;7255;53.596;9.960;2022-09-21T07:06:08;23.05;;;16.45;;
14342;SDS011;7255;53.596;9.960;2022-09-21T07:08:38;31.37;;;16.65;;
14342;SDS011;7255;53.596;9.960;2022-09-21T07:11:04;29.42;;;17.55;;
14342;SDS011;7255;53.596;9.960;2022-09-21T07:13:31;25.65;;;16.60;;
14342;SDS011;7255;53.596;9.960;2022-09-21T07:16:01;29.95;;;17.80;;
14342;SDS011;7255;53.596;9.960;2022-09-21T07:18:29;27.33;;;17.02;;
14342;SDS011;7255;53.596;9.960;2022-09-21T07:20:56;30.50;;;16.55;;
14342;SDS011;7255;53.596;9.960;2022-09-21T07:23:23;27.70;;;17.08;;
14342;SDS011;7255;53.596;9.960;2022-09-21T07:25:49;25.42;;;16.92;;
14342;SDS011;7255;53.596;9.960;2022-09-21T07:28:16;27.92;;;16.00;;
14342;SDS011;7255;53.596;9.960;2022-09-21T07:30:43;26.65;;;15.65;;
14342;SDS011;7255;53.596;9.960;2022-09-21T07:33:11;25.40;;;15.50;;
14342;SDS011;7255;53.596;9.960;2022-09-21T07:35:37;28.00;;;16.50;;
14342;SDS011;7255;53.596;9.960;2022-09-21T07:38:05;29.17;;;17.17;;
14342;SDS011;7255;53.596;9.960;2022-09-21T07:40:32;24.20;;;15.25;;
14342;SDS011;7255;53.596;9.960;2022-09-21T07:42:59;26.70;;;16.48;;
14342;SDS011;7255;53.596;9.960;2022-09-21T07:45:27;28.33;;;16.90;;
14342;SDS011;7255;53.596;9.960;2022-09-21T07:47:53;26.02;;;16.77;;
14342;SDS011;7255;53.596;9.960;2022-09-21T07:50:21;25.67;;;15.98;;
14342;SDS011;7255;53.596;9.960;2022-09-21T07:52:48;20.12;;;14.85;;
14342;SDS011;7255;53.596;9.960;2022-09-21T07:55:14;25.50;;;15.63;;
14342;SDS011;7255;53.596;9.960;2022-09-21T07:57:41;26.20;;;16.05;;
14342;SDS011;7255;53.596;9.960;2022-09-21T08:00:25;26.48;;;16.87;;
14342;SDS011;7255;53.596;9.960;2022-09-21T08:02:53;22.23;;;16.52;;
14342;SDS011;7255;53.596;9.960;2022-09-21T08:05:19;26.95;;;16.37;;
14342;SDS011;7255;53.596;9.960;2022-09-21T08:07:47;25.58;;;15.52;;
14342;SDS011;7255;53.596;9.960;2022-09-21T08:10:13;30.85;;;15.63;;
14342;SDS011;7255;53.596;9.960;2022-09-21T08:12:39;22.92;;;14.70;;
14342;SDS011;7255;53.596;9.960;2022-09-21T08:15:08;20.52;;;14.60;;
14342;SDS011;7255;53.596;9.960;2022-09-21T08:17:36;26.17;;;14.20;;
14342;SDS011;7255;53.596;9.960;2022-09-21T08:20:03;20.10;;;12.90;;
14342;SDS011;7255;53.596;9.960;2022-09-21T08:22:29;19.92;;;12.00;;
14342;SDS011;7255;53.596;9.960;2022-09-21T08:24:57;16.30;;;11.82;;
14342;SDS011;7255;53.596;9.960;2022-09-21T08:27:24;15.98;;;9.98;;
14342;SDS011;7255;53.596;9.960;2022-09-21T08:29:50;14.50;;;10.05;;
14342;SDS011;7255;53.596;9.960;2022-09-21T08:32:16;12.52;;;9.73;;
14342;SDS011;7255;53.596;9.960;2022-09-21T08:34:42;15.38;;;10.55;;
14342;SDS011;7255;53.596;9.960;2022-09-21T08:37:09;14.93;;;10.07;;
14342;SDS011;7255;53.596;9.960;2022-09-21T08:39:35;11.82;;;8.60;;
14342;SDS011;7255;53.596;9.960;2022-09-21T08:42:07;14.02;;;10.05;;
14342;SDS011;7255;53.596;9.960;2022-09-21T08:44:40;14.15;;;9.20;;
14342;SDS011;7255;53.596;9.960;2022-09-21T08:47:11;12.48;;;8.77;;
14342;SDS011;7255;53.596;9.960;2022-09-21T08:49:41;10.30;;;7.20;;
14342;SDS011;7255;53.596;9.960;2022-09-21T08:52:13;14.30;;;7.28;;
14342;SDS011;7255;53.596;9.960;2022-09-21T08:54:43;9.88;;;6.07;;
14342;SDS011;7255;53.596;9.960;2022-09-21T08:57:15;8.40;;;4.65;;
14342;SDS011;7255;53.596;9.960;2022-09-21T08:59:43;5.45;;;4.20;;
14342;SDS011;7255;53.596;9.960;2022-09-21T09:02:19;6.40;;;4.55;;
14342;SDS011;7255;53.596;9.960;2022-09-21T09:05:07;7.93;;;4.22;;
14342;SDS011;7255;53.596;9.960;2022-09-21T09:07:51;5.65;;;4.10;;
14342;SDS011;7255;53.596;9.960;2022-09-21T09:10:33;6.53;;;4.55;;
14342;SDS011;7255;53.596;9.960;2022-09-21T09:13:07;8.35;;;3.90;;
14342;SDS011;7255;53.596;9.960;2022-09-21T09:15:48;5.85;;;3.83;;
14342;SDS011;7255;53.596;9.960;2022-09-21T09:18:22;7.00;;;3.53;;
14342;SDS011;7255;53.596;9.960;2022-09-21T09:20:58;5.05;;;3.03;;
14342;SDS011;7255;53.596;9.960;2022-09-21T09:23:30;6.97;;;3.67;;
14342;SDS011;7255;53.596;9.960;2022-09-21T09:26:01;4.47;;;2.90;;
14342;SDS011;7255;53.596;9.960;2022-09-21T09:28:35;4.65;;;3.30;;
14342;SDS011;7255;53.596;9.960;2022-09-21T09:31:10;6.53;;;3.25;;
14342;SDS011;7255;53.596;9.960;2022-09-21T09:33:43;3.22;;;2.90;;
14342;SDS011;7255;53.596;9.960;2022-09-21T09:36:17;3.62;;;2.53;;
14342;SDS011;7255;53.596;9.960;2022-09-21T09:38:44;4.68;;;2.67;;
14342;SDS011;7255;53.596;9.960;2022-09-21T09:41:31;5.68;;;3.53;;
14342;SDS011;7255;53.596;9.960;2022-09-21T09:44:46;3.92;;;2.70;;
14342;SDS011;7255;53.596;9.960;2022-09-21T09:47:26;3.83;;;2.58;;
14342;SDS011;7255;53.596;9.960;2022-09-21T09:50:03;3.20;;;2.42;;
14342;SDS011;7255;53.596;9.960;2022-09-21T09:52:33;4.28;;;2.47;;
14342;SDS011;7255;53.596;9.960;2022-09-21T09:55:00;2.58;;;2.05;;
14342;SDS011;7255;53.596;9.960;2022-09-21T09:57:36;4.50;;;2.22;;
14342;SDS011;7255;53.596;9.960;2022-09-21T10:00:05;4.40;;;2.70;;
14342;SDS011;7255;53.596;9.960;2022-09-21T10:02:45;5.30;;;2.78;;
14342;SDS011;7255;53.596;9.960;2022-09-21T10:05:18;4.28;;;3.00;;
14342;SDS011;7255;53.596;9.960;2022-09-21T10:07:46;4.82;;;2.30;;
14342;SDS011;7255;53.596;9.960;2022-09-21T10:10:23;1.90;;;1.62;;
14342;SDS011;7255;53.596;9.960;2022-09-21T10:12:56;2.67;;;1.60;;
14342;SDS011;7255;53.596;9.960;2022-09-21T10:15:31;1.50;;;1.40;;
14342;SDS011;7255;53.596;9.960;2022-09-21T10:18:00;2.58;;;1.50;;
14342;SDS011;7255;53.596;9.960;2022-09-21T10:20:31;2.08;;;1.20;;
14342;SDS011;7255;53.596;9.960;2022-09-21T10:22:58;1.37;;;1.20;;
14342;SDS011;7255;53.596;9.960;2022-09-21T10:25:25;1.92;;;1.40;;
14342;SDS011;7255;53.596;9.960;2022-09-21T10:27:52;2.50;;;1.67;;
14342;SDS011;7255;53.596;9.960;2022-09-21T10:30:32;1.95;;;1.40;;
14342;SDS011;7255;53.596;9.960;2022-09-21T10:33:00;2.80;;;1.15;;
14342;SDS011;7255;53.596;9.960;2022-09-21T10:35:26;2.70;;;1.90;;
14342;SDS011;7255;53.596;9.960;2022-09-21T10:38:07;2.75;;;2.17;;
14342;SDS011;7255;53.596;9.960;2022-09-21T10:40:35;2.85;;;1.60;;
14342;SDS011;7255;53.596;9.960;2022-09-21T10:43:03;2.35;;;1.20;;
14342;SDS011;7255;53.596;9.960;2022-09-21T10:45:32;1.60;;;1.30;;
14342;SDS011;7255;53.596;9.960;2022-09-21T10:48:05;1.60;;;1.50;;
14342;SDS011;7255;53.596;9.960;2022-09-21T10:50:34;1.60;;;1.30;;
14342;SDS011;7255;53.596;9.960;2022-09-21T10:53:09;3.35;;;1.40;;
14342;SDS011;7255;53.596;9.960;2022-09-21T10:55:38;4.62;;;1.70;;
14342;SDS011;7255;53.596;9.960;2022-09-21T10:58:08;1.45;;;1.35;;
14342;SDS011;7255;53.596;9.960;2022-09-21T11:00:41;1.60;;;1.50;;
14342;SDS011;7255;53.596;9.960;2022-09-21T11:06:08;1.50;;;1.35;;
14342;SDS011;7255;53.596;9.960;2022-09-21T11:08:40;1.75;;;1.40;;
14342;SDS011;7255;53.596;9.960;2022-09-21T11:11:24;1.85;;;1.30;;
14342;SDS011;7255;53.596;9.960;2022-09-21T11:14:03;1.20;;;1.10;;
14342;SDS011;7255;53.596;9.960;2022-09-21T11:16:40;1.12;;;1.00;;
14342;SDS011;7255;53.596;9.960;2022-09-21T11:19:13;1.52;;;0.95;;
14342;SDS011;7255;53.596;9.960;2022-09-21T11:21:50;1.55;;;0.98;;
14342;SDS011;7255;53.596;9.960;2022-09-21T11:24:22;1.50;;;1.20;;
14342;SDS011;7255;53.596;9.960;2022-09-21T11:26:58;1.40;;;1.17;;
14342;SDS011;7255;53.596;9.960;2022-09-21T11:29:30;1.80;;;1.30;;
14342;SDS011;7255;53.596;9.960;2022-09-21T11:32:15;1.58;;;1.20;;
14342;SDS011;7255;53.596;9.960;2022-09-21T11:34:57;1.12;;;1.00;;
14342;SDS011;7255;53.596;9.960;2022-09-21T11:37:37;1.30;;;1.20;;
14342;SDS011;7255;53.596;9.960;2022-09-21T11:40:24;1.25;;;0.90;;
14342;SDS011;7255;53.596;9.960;2022-09-21T11:43:04;1.58;;;1.20;;
14342;SDS011;7255;53.596;9.960;2022-09-21T11:45:46;1.60;;;1.20;;
14342;SDS011;7255;53.596;9.960;2022-09-21T11:48:25;3.62;;;1.20;;
14342;SDS011;7255;53.596;9.960;2022-09-21T11:51:07;4.07;;;1.95;;
14342;SDS011;7255;53.596;9.960;2022-09-21T11:53:47;3.58;;;1.40;;
14342;SDS011;7255;53.596;9.960;2022-09-21T11:56:30;3.97;;;2.22;;
14342;SDS011;7255;53.596;9.960;2022-09-21T11:59:24;5.30;;;1.33;;
14342;SDS011;7255;53.596;9.960;2022-09-21T12:02:12;2.70;;;1.70;;
14342;SDS011;7255;53.596;9.960;2022-09-21T12:04:53;5.05;;;2.85;;
14342;SDS011;7255;53.596;9.960;2022-09-21T12:07:30;1.92;;;1.73;;
14342;SDS011;7255;53.596;9.960;2022-09-21T12:10:16;2.03;;;1.70;;
14342;SDS011;7255;53.596;9.960;2022-09-21T12:12:53;2.72;;;1.70;;
14342;SDS011;7255;53.596;9.960;2022-09-21T12:15:28;2.05;;;1.58;;
14342;SDS011;7255;53.596;9.960;2022-09-21T12:18:01;2.33;;;1.80;;
14342;SDS011;7255;53.596;9.960;2022-09-21T12:20:37;2.00;;;1.50;;
14342;SDS011;7255;53.596;9.960;2022-09-21T12:23:11;1.70;;;1.20;;
14342;SDS011;7255;53.596;9.960;2022-09-21T12:25:43;1.67;;;1.37;;
14342;SDS011;7255;53.596;9.960;2022-09-21T12:28:16;3.55;;;1.33;;
14342;SDS011;7255;53.596;9.960;2022-09-21T12:30:48;1.77;;;1.20;;
14342;SDS011;7255;53.596;9.960;2022-09-21T12:33:20;2.20;;;1.65;;
14342;SDS011;7255;53.596;9.960;2022-09-21T12:35:53;2.58;;;1.80;;
14342;SDS011;7255;53.596;9.960;2022-09-21T12:38:27;2.20;;;1.62;;
14342;SDS011;7255;53.596;9.960;2022-09-21T12:41:01;2.05;;;1.60;;
14342;SDS011;7255;53.596;9.960;2022-09-21T12:43:35;3.70;;;1.98;;
14342;SDS011;7255;53.596;9.960;2022-09-21T12:46:06;1.87;;;1.60;;
14342;SDS011;7255;53.596;9.960;2022-09-21T12:48:38;2.78;;;1.58;;
14342;SDS011;7255;53.596;9.960;2022-09-21T12:51:09;3.67;;;1.40;;
14342;SDS011;7255;53.596;9.960;2022-09-21T12:53:41;3.65;;;1.80;;
14342;SDS011;7255;53.596;9.960;2022-09-21T12:56:12;2.05;;;1.85;;
14342;SDS011;7255;53.596;9.960;2022-09-21T12:58:49;1.85;;;1.30;;
14342;SDS011;7255;53.596;9.960;2022-09-21T13:01:24;1.58;;;1.37;;
14342;SDS011;7255;53.596;9.960;2022-09-21T13:04:03;3.83;;;1.98;;
14342;SDS011;7255;53.596;9.960;2022-09-21T13:06:49;1.42;;;1.25;;
14342;SDS011;7255;53.596;9.960;2022-09-21T13:09:31;3.62;;;1.62;;
14342;SDS011;7255;53.596;9.960;2022-09-21T13:11:59;1.60;;;1.50;;
14342;SDS011;7255;53.596;9.960;2022-09-21T13:14:33;1.67;;;1.40;;
14342;SDS011;7255;53.596;9.960;2022-09-21T13:17:02;2.37;;;1.10;;
14342;SDS011;7255;53.596;9.960;2022-09-21T13:19:30;1.33;;;1.12;;
14342;SDS011;7255;53.596;9.960;2022-09-21T13:22:09;2.55;;;1.25;;
14342;SDS011;7255;53.596;9.960;2022-09-21T13:24:43;2.65;;;1.40;;
14342;SDS011;7255;53.596;9.960;2022-09-21T13:27:12;2.97;;;1.30;;
14342;SDS011;7255;53.596;9.960;2022-09-21T13:29:39;1.37;;;1.20;;
14342;SDS011;7255;53.596;9.960;2022-09-21T13:32:20;1.10;;;1.00;;
14342;SDS011;7255;53.596;9.960;2022-09-21T13:34:48;1.87;;;1.40;;
14342;SDS011;7255;53.596;9.960;2022-09-21T13:37:24;2.17;;;1.30;;
14342;SDS011;7255;53.596;9.960;2022-09-21T13:49:17;1.20;;;1.10;;
14342;SDS011;7255;53.596;9.960;2022-09-21T13:51:52;1.90;;;1.08;;
14342;SDS011;7255;53.596;9.960;2022-09-21T13:54:26;1.40;;;1.30;;
14342;SDS011;7255;53.596;9.960;2022-09-21T13:56:58;1.30;;;1.05;;
14342;SDS011;7255;53.596;9.960;2022-09-21T13:59:29;1.60;;;1.10;;
14342;SDS011;7255;53.596;9.960;2022-09-21T14:01:59;2.35;;;1.85;;
14342;SDS011;7255;53.596;9.960;2022-09-21T14:04:27;4.10;;;1.35;;
14342;SDS011;7255;53.596;9.960;2022-09-21T14:06:56;2.20;;;1.30;;
14342;SDS011;7255;53.596;9.960;2022-09-21T14:09:30;3.40;;;1.50;;
14342;SDS011;7255;53.596;9.960;2022-09-21T14:12:03;1.70;;;1.40;;
14342;SDS011;7255;53.596;9.960;2022-09-21T14:14:35;1.40;;;1.10;;
14342;SDS011;7255;53.596;9.960;2022-09-21T14:17:03;1.67;;;1.23;;
14342;SDS011;7255;53.596;9.960;2022-09-21T14:22:38;1.20;;;1.10;;
14342;SDS011;7255;53.596;9.960;2022-09-21T14:25:24;2.75;;;1.20;;
14342;SDS011;7255;53.596;9.960;2022-09-21T14:27:59;2.05;;;1.30;;
14342;SDS011;7255;53.596;9.960;2022-09-21T14:30:31;1.27;;;1.08;;
14342;SDS011;7255;53.596;9.960;2022-09-21T14:33:03;1.20;;;1.10;;
14342;SDS011;7255;53.596;9.960;2022-09-21T14:35:37;1.48;;;1.05;;
14342;SDS011;7255;53.596;9.960;2022-09-21T14:38:12;1.20;;;1.10;;
14342;SDS011;7255;53.596;9.960;2022-09-21T14:40:45;1.10;;;1.00;;
14342;SDS011;7255;53.596;9.960;2022-09-21T14:43:15;3.50;;;0.80;;
14342;SDS011;7255;53.596;9.960;2022-09-21T14:45:48;3.30;;;1.40;;
14342;SDS011;7255;53.596;9.960;2022-09-21T14:48:25;2.92;;;1.23;;
14342;SDS011;7255;53.596;9.960;2022-09-21T14:50:59;1.58;;;1.33;;
14342;SDS011;7255;53.596;9.960;2022-09-21T14:53:33;3.05;;;1.00;;
14342;SDS011;7255;53.596;9.960;2022-09-21T14:56:16;2.12;;;1.20;;
14342;SDS011;7255;53.596;9.960;2022-09-21T14:58:57;2.40;;;1.10;;
14342;SDS011;7255;53.596;9.960;2022-09-21T15:01:40;2.37;;;0.90;;
14342;SDS011;7255;53.596;9.960;2022-09-21T15:07:15;2.70;;;0.98;;
14342;SDS011;7255;53.596;9.960;2022-09-21T15:10:23;1.40;;;0.95;;
14342;SDS011;7255;53.596;9.960;2022-09-21T15:13:13;1.05;;;0.95;;
14342;SDS011;7255;53.596;9.960;2022-09-21T15:15:47;2.80;;;0.93;;
14342;SDS011;7255;53.596;9.960;2022-09-21T15:18:25;1.62;;;0.90;;
14342;SDS011;7255;53.596;9.960;2022-09-21T15:20:55;1.65;;;1.00;;
14342;SDS011;7255;53.596;9.960;2022-09-21T15:23:25;1.15;;;0.95;;
14342;SDS011;7255;53.596;9.960;2022-09-21T15:25:53;1.42;;;1.00;;
14342;SDS011;7255;53.596;9.960;2022-09-21T15:28:25;2.25;;;0.98;;
14342;SDS011;7255;53.596;9.960;2022-09-21T15:31:00;1.87;;;0.90;;
14342;SDS011;7255;53.596;9.960;2022-09-21T15:33:26;0.90;;;0.90;;
14342;SDS011;7255;53.596;9.960;2022-09-21T15:35:53;2.92;;;1.30;;
14342;SDS011;7255;53.596;9.960;2022-09-21T15:38:26;1.45;;;0.82;;
14342;SDS011;7255;53.596;9.960;2022-09-21T15:40:54;2.17;;;1.30;;